St Agnes, United Kingdom
Current Conditions -  °F | °C
As of 11:50 AM on Thursday 30 Oct 2014 (Local Time) from EGHQ Reporting Station
Haze Haze  
Wind Chill: 57°   Ceiling: 200
Heat Index: 57°   Visibility: 1.5mi
Dew Point: 57°   Wind: 17mph
Humidity: 100%   Direction: 170°S
Pressure: 30"   Gusts: NA
Location:  50.31°N, 5.2°W
Report Text: EGHQ 301150Z 17015KT 2500 BR BKN002 14/14 Q1016
Loading
Personal Weather Stations






























Interactive Weather Map
Tropical Storm Tracking
New forecast layout! Learn more

10-Day Weather Forecast

Advertisements
Track Severe Weather on mobile